Station Charts

 

Station Historical Data
 
Daily Summary for January 23, 2018 Units:  English    Metric   Both
« Previous Day
Next Day »
Daily Weekly Monthly Yearly Custom
  Current: High: Low: Average:
Temperature: 41.5 °F 41.5 °F 37.6 °F 39.7 °F
Dew Point: 39.7 °F 39.7 °F 32.8 °F 35.9 °F
Humidity: 93 % 93 % 75 % 86 %
Wind Speed: 0.0 mph 2.3 mph 0.0 mph 0.1 mph
Wind Gust: 0.0 mph 0.0 mph - -
Wind:Calm - - SE
Pressure: 29.90 in 30.23 in 29.76 in -
Precipitation: 0.31 in      
Historical Graphs
 
 
Tabular Data for January 23, 2018
Time Temperature Dew Point Pressure Wind Wind Speed Wind Gust Humidity Rainfall Rate (Hourly)
00:02 37.6 °F 34.3 °F 29.82 in SE 2.3 mph   88 % 0.00 in
00:12 37.8 °F 34.2 °F 29.82 in Calm     87 % 0.00 in
00:17 37.8 °F 34.2 °F 29.82 in Calm     87 % 0.00 in
00:22 37.9 °F 34.4 °F 29.82 in Calm     87 % 0.00 in
00:27 37.9 °F 34.4 °F 29.82 in Calm     87 % 0.00 in
00:32 38.1 °F 34.6 °F 29.81 in Calm     87 % 0.00 in
00:37 38.1 °F 34.6 °F 29.81 in Calm     87 % 0.00 in
00:42 38.1 °F 34.6 °F 29.81 in Calm     87 % 0.00 in
00:47 37.9 °F 34.4 °F 29.81 in Calm     87 % 0.00 in
00:52 37.9 °F 34.4 °F 29.81 in Calm     87 % 0.00 in
00:57 37.9 °F 34.4 °F 29.81 in Calm     87 % 0.00 in
01:03 37.9 °F 34.1 °F 29.80 in Calm     86 % 0.00 in
01:08 38.1 °F 34.3 °F 29.80 in Calm     86 % 0.00 in
01:13 38.1 °F 34.0 °F 29.80 in Calm     85 % 0.00 in
01:18 38.3 °F 34.2 °F 29.79 in SE 2.3 mph   85 % 0.00 in
01:23 38.5 °F 34.1 °F 29.79 in Calm     84 % 0.00 in
01:28 38.5 °F 34.1 °F 29.79 in Calm     84 % 0.00 in
01:33 38.7 °F 33.9 °F 29.79 in Calm     83 % 0.00 in
01:38 38.7 °F 33.9 °F 29.79 in Calm     83 % 0.00 in
01:43 38.8 °F 34.4 °F 29.79 in Calm     84 % 0.00 in
01:48 38.8 °F 34.4 °F 29.78 in Calm     84 % 0.00 in
01:53 38.8 °F 34.1 °F 29.78 in Calm     83 % 0.00 in
02:09 38.7 °F 33.9 °F 29.77 in Calm     83 % 0.00 in
02:14 38.7 °F 34.5 °F 29.77 in Calm     85 % 0.00 in
02:19 38.7 °F 33.9 °F 29.77 in Calm     83 % 0.00 in
02:24 38.7 °F 33.9 °F 29.77 in Calm     83 % 0.00 in
02:29 38.7 °F 33.6 °F 29.77 in Calm     82 % 0.00 in
02:34 38.7 °F 33.6 °F 29.76 in Calm     82 % 0.00 in
02:47 38.7 °F 33.6 °F 30.23 in Calm     82 % 0.00 in
02:52 38.5 °F 33.5 °F 30.23 in Calm     82 % 0.00 in
03:02 38.5 °F 33.8 °F 30.21 in Calm     83 % 0.00 in
03:07 38.5 °F 34.1 °F 30.21 in Calm     84 % 0.00 in
03:12 38.3 °F 33.6 °F 30.21 in Calm     83 % 0.00 in
03:17 38.3 °F 33.6 °F 30.20 in Calm     83 % 0.00 in
03:22 38.3 °F 33.3 °F 30.20 in Calm     82 % 0.00 in
03:27 38.3 °F 33.3 °F 30.20 in Calm     82 % 0.00 in
03:37 38.3 °F 33.3 °F 30.19 in Calm     82 % 0.00 in
03:42 38.1 °F 33.4 °F 30.19 in SSE 1.2 mph   83 % 0.00 in
03:47 38.1 °F 33.1 °F 30.17 in Calm     82 % 0.00 in
03:52 38.1 °F 33.4 °F 30.17 in Calm     83 % 0.00 in
03:57 38.1 °F 33.7 °F 30.17 in Calm     84 % 0.00 in
04:03 37.9 °F 33.5 °F 30.16 in Calm     84 % 0.00 in
04:08 37.9 °F 33.5 °F 30.16 in Calm     84 % 0.00 in
04:13 37.8 °F 33.4 °F 30.16 in Calm     84 % 0.00 in
04:18 37.8 °F 33.1 °F 30.15 in Calm     83 % 0.00 in
04:23 37.8 °F 32.8 °F 30.15 in Calm     82 % 0.00 in
04:28 37.8 °F 33.1 °F 30.15 in Calm     83 % 0.00 in
04:33 37.9 °F 33.2 °F 30.13 in Calm     83 % 0.00 in
04:38 37.9 °F 33.2 °F 30.13 in Calm     83 % 0.00 in
04:43 38.1 °F 33.1 °F 30.13 in Calm     82 % 0.00 in
04:48 38.3 °F 33.3 °F 30.12 in Calm     82 % 0.00 in
04:49 38.3 °F 33.0 °F 30.12 in Calm     81 % 0.00 in
04:54 38.5 °F 32.8 °F 30.12 in Calm     80 % 0.00 in
04:59 38.7 °F 33.3 °F 30.12 in Calm     81 % 0.00 in
05:04 38.8 °F 33.2 °F 30.11 in Calm     80 % 0.00 in
05:09 38.8 °F 32.9 °F 30.11 in Calm     79 % 0.00 in
05:14 39.0 °F 33.1 °F 30.11 in Calm     79 % 0.00 in
05:20 39.0 °F 33.1 °F 30.10 in Calm     79 % 0.00 in
05:25 39.2 °F 33.2 °F 30.10 in Calm     79 % 0.00 in
05:30 39.4 °F 33.1 °F 30.10 in Calm     78 % 0.00 in
05:35 39.4 °F 33.4 °F 30.09 in Calm     79 % 0.00 in
05:40 39.6 °F 33.6 °F 30.09 in Calm     79 % 0.00 in
05:45 39.6 °F 33.6 °F 30.09 in Calm     79 % 0.00 in
05:50 39.7 °F 34.1 °F 30.08 in Calm     80 % 0.00 in
05:55 39.7 °F 33.4 °F 30.08 in Calm     78 % 0.00 in
06:00 39.9 °F 33.0 °F 30.08 in Calm     76 % 0.00 in
06:05 40.1 °F 33.5 °F 30.08 in Calm     77 % 0.00 in
06:10 40.3 °F 34.3 °F 30.08 in ESE 2.0 mph   79 % 0.00 in
06:15 40.5 °F 34.1 °F 30.08 in Calm     78 % 0.00 in
06:20 40.5 °F 33.8 °F 30.08 in Calm     77 % 0.00 in
06:25 40.6 °F 33.7 °F 30.08 in Calm     76 % 0.00 in
06:30 40.8 °F 33.8 °F 30.08 in Calm     76 % 0.00 in
06:35 41.0 °F 34.0 °F 30.07 in Calm     76 % 0.00 in
06:41 41.2 °F 33.9 °F 30.07 in SE 2.3 mph   75 % 0.00 in
06:46 41.4 °F 35.0 °F 30.07 in Calm     78 % 0.00 in
06:56 41.2 °F 35.8 °F 30.06 in Calm     81 % 0.00 in
07:01 41.0 °F 34.7 °F 30.06 in Calm     78 % 0.00 in
07:06 40.8 °F 34.8 °F 30.06 in Calm     79 % 0.00 in
07:11 40.8 °F 35.4 °F 30.06 in Calm     81 % 0.00 in
07:16 40.8 °F 34.5 °F 30.06 in Calm     78 % 0.00 in
07:21 40.8 °F 35.1 °F 30.06 in Calm     80 % 0.00 in
07:26 40.8 °F 34.8 °F 30.06 in Calm     79 % 0.00 in
07:31 40.6 °F 35.6 °F 30.06 in Calm     82 % 0.00 in
07:36 40.5 °F 35.1 °F 30.04 in Calm     81 % 0.00 in
07:41 40.5 °F 35.1 °F 30.04 in Calm     81 % 0.00 in
07:46 40.5 °F 35.4 °F 30.04 in Calm     82 % 0.00 in
07:47 40.5 °F 35.4 °F 30.04 in Calm     82 % 0.00 in
07:53 40.3 °F 35.5 °F 30.04 in Calm     83 % 0.00 in
07:58 40.3 °F 35.8 °F 30.04 in Calm     84 % 0.00 in
08:08 40.1 °F 36.0 °F 30.05 in Calm     85 % 0.00 in
08:13 40.1 °F 36.2 °F 30.05 in Calm     86 % 0.01 in
08:23 39.9 °F 36.7 °F 30.05 in Calm     88 % 0.01 in
08:28 39.9 °F 36.9 °F 30.05 in Calm     89 % 0.03 in
08:33 39.7 °F 36.8 °F 30.04 in Calm     89 % 0.03 in
08:38 39.7 °F 36.5 °F 30.04 in SSE 2.3 mph   88 % 0.04 in
08:43 39.9 °F 37.2 °F 30.04 in Calm     90 % 0.05 in
08:48 39.9 °F 37.2 °F 30.03 in Calm     90 % 0.07 in
08:53 39.9 °F 37.2 °F 30.03 in Calm     90 % 0.07 in
09:04 40.1 °F 37.7 °F 30.01 in Calm     91 % 0.08 in
09:09 40.3 °F 37.9 °F 30.01 in Calm     91 % 0.08 in
09:14 40.3 °F 37.9 °F 30.01 in Calm     91 % 0.07 in
09:19 40.3 °F 38.1 °F 30.01 in Calm     92 % 0.07 in
09:24 40.3 °F 38.1 °F 30.01 in Calm     92 % 0.07 in
09:29 40.5 °F 38.3 °F 30.01 in Calm     92 % 0.05 in
09:34 40.5 °F 38.3 °F 30.01 in Calm     92 % 0.06 in
09:39 40.5 °F 38.3 °F 30.01 in Calm     92 % 0.05 in
09:44 40.5 °F 38.3 °F 30.01 in Calm     92 % 0.04 in
09:49 40.6 °F 38.8 °F 30.01 in Calm     93 % 0.03 in
09:54 40.6 °F 38.5 °F 30.01 in Calm     92 % 0.04 in
09:59 40.5 °F 38.3 °F 30.01 in Calm     92 % 0.03 in
10:04 40.6 °F 38.5 °F 30.00 in Calm     92 % 0.03 in
10:09 40.6 °F 38.5 °F 30.00 in Calm     92 % 0.03 in
10:14 40.6 °F 38.8 °F 30.00 in Calm     93 % 0.03 in
10:19 40.6 °F 38.8 °F 29.99 in Calm     93 % 0.04 in
10:25 40.6 °F 38.8 °F 29.99 in Calm     93 % 0.04 in
10:30 40.6 °F 38.5 °F 29.99 in Calm     92 % 0.03 in
10:35 40.6 °F 38.5 °F 29.99 in Calm     92 % 0.05 in
10:40 40.6 °F 38.8 °F 29.99 in Calm     93 % 0.05 in
10:45 40.6 °F 38.8 °F 29.99 in Calm     93 % 0.05 in
10:50 40.6 °F 38.8 °F 29.99 in Calm     93 % 0.05 in
10:55 40.8 °F 39.0 °F 29.99 in Calm     93 % 0.05 in
11:00 40.6 °F 38.8 °F 29.99 in Calm     93 % 0.05 in
11:05 40.6 °F 38.8 °F 29.99 in Calm     93 % 0.05 in
11:10 40.8 °F 39.0 °F 29.99 in Calm     93 % 0.06 in
11:15 40.8 °F 39.0 °F 29.99 in Calm     93 % 0.06 in
11:20 40.8 °F 39.0 °F 29.98 in Calm     93 % 0.05 in
11:25 40.8 °F 39.0 °F 29.98 in Calm     93 % 0.06 in
11:40 41.0 °F 39.1 °F 29.97 in Calm     93 % 0.04 in
11:45 41.0 °F 39.1 °F 29.97 in Calm     93 % 0.05 in
11:51 40.8 °F 39.0 °F 29.95 in Calm     93 % 0.06 in
12:01 40.8 °F 39.0 °F 29.95 in Calm     93 % 0.06 in
12:06 40.8 °F 39.0 °F 29.93 in Calm     93 % 0.06 in
12:11 40.8 °F 39.0 °F 29.93 in SSE 2.0 mph   93 % 0.06 in
12:21 41.0 °F 39.1 °F 29.93 in Calm     93 % 0.07 in
12:26 41.0 °F 39.1 °F 29.93 in Calm     93 % 0.07 in
12:31 41.2 °F 39.3 °F 29.93 in Calm     93 % 0.07 in
12:36 41.2 °F 39.3 °F 29.93 in Calm     93 % 0.07 in
12:41 41.2 °F 39.3 °F 29.93 in Calm     93 % 0.06 in
12:46 41.2 °F 39.3 °F 29.93 in Calm     93 % 0.05 in
12:51 41.4 °F 39.5 °F 29.92 in Calm     93 % 0.04 in
12:56 41.4 °F 39.5 °F 29.92 in Calm     93 % 0.03 in
12:57 41.4 °F 39.5 °F 29.92 in Calm     93 % 0.03 in
13:03 41.4 °F 39.5 °F 29.91 in Calm     93 % 0.03 in
13:13 41.5 °F 39.7 °F 29.91 in Calm     93 % 0.04 in
13:18 41.4 °F 39.5 °F 29.90 in Calm     93 % 0.04 in
13:23 41.4 °F 39.5 °F 29.90 in Calm     93 % 0.04 in
13:28 41.4 °F 39.5 °F 29.90 in Calm     93 % 0.04 in
13:33 41.5 °F 39.7 °F 29.89 in Calm     93 % 0.05 in
13:38 41.5 °F 39.7 °F 29.89 in Calm     93 % 0.06 in
13:43 41.5 °F 39.7 °F 29.89 in Calm     93 % 0.06 in
13:48 41.5 °F 39.7 °F 29.90 in Calm     93 % 0.06 in
Compliments of Weather Underground - 1.25 mb